Time;durP1;ratioP1;P1;durP2;ratioP2;P2;SDS_P1;SDS_P2;PMS_P1;PMS_P2;Temp;Humidity;BMP_temperature;BMP_pressure;BME280_temperature;BME280_humidity;BME280_pressure;Samples;Min_cycle;Max_cycle;Signal;HPM_P1;HPM_P2
2021/08/17 00:01:10;;;;;;;10.53;5.93;;;12.30;99.90;;;;;;5116373;28;20293;-86
2021/08/17 00:03:36;;;;;;;8.83;5.77;;;12.30;99.90;;;;;;5116237;28;20621;-86
2021/08/17 00:06:03;;;;;;;8.57;6.03;;;12.30;99.90;;;;;;5118445;28;20198;-86
2021/08/17 00:08:29;;;;;;;7.50;5.57;;;12.20;99.90;;;;;;5117950;28;20201;-86
2021/08/17 00:10:54;;;;;;;8.50;5.23;;;12.30;99.90;;;;;;5118138;28;20180;-86
2021/08/17 00:13:20;;;;;;;9.73;6.63;;;12.20;99.90;;;;;;5117616;28;20652;-86
2021/08/17 00:15:47;;;;;;;9.47;5.93;;;12.20;99.90;;;;;;5119085;28;20182;-86
2021/08/17 00:18:12;;;;;;;11.37;6.07;;;12.20;99.90;;;;;;5118148;28;20174;-86
2021/08/17 00:20:38;;;;;;;11.47;6.53;;;12.20;99.90;;;;;;5118808;28;20186;-86
2021/08/17 00:23:07;;;;;;;11.73;7.53;;;12.20;99.90;;;;;;5119484;28;20224;-86
2021/08/17 00:25:34;;;;;;;10.17;6.90;;;12.20;99.90;;;;;;5121430;28;20171;-86
2021/08/17 00:28:00;;;;;;;12.90;7.80;;;12.20;99.90;;;;;;5120846;28;20206;-86
2021/08/17 00:30:26;;;;;;;11.90;7.60;;;12.20;99.90;;;;;;5120750;28;20172;-86
2021/08/17 00:32:52;;;;;;;14.70;8.17;;;12.20;99.90;;;;;;5121372;28;20172;-86
2021/08/17 00:35:18;;;;;;;12.57;8.07;;;12.20;99.90;;;;;;5122964;28;20189;-86
2021/08/17 00:37:43;;;;;;;13.53;8.20;;;12.20;99.90;;;;;;5123326;28;20198;-86
2021/08/17 00:40:10;;;;;;;11.97;7.97;;;12.30;99.90;;;;;;5130889;28;20554;-85
2021/08/17 00:42:44;;;;;;;13.53;8.40;;;12.20;99.90;;;;;;5135433;28;20259;-85
2021/08/17 00:45:19;;;;;;;12.13;8.27;;;12.20;99.90;;;;;;5125004;28;20261;-86
2021/08/17 00:47:45;;;;;;;12.50;9.07;;;12.20;99.90;;;;;;5121553;28;20210;-86
2021/08/17 00:50:11;;;;;;;18.03;8.60;;;12.20;99.90;;;;;;5122570;28;20183;-86
2021/08/17 00:52:38;;;;;;;13.00;8.03;;;12.20;99.90;;;;;;5121503;28;20171;-86
2021/08/17 00:55:04;;;;;;;17.87;9.23;;;12.20;99.90;;;;;;5120635;28;20176;-86
2021/08/17 00:57:30;;;;;;;11.87;8.23;;;12.20;99.90;;;;;;5120277;28;20589;-86
2021/08/17 00:59:56;;;;;;;13.57;8.23;;;12.20;99.90;;;;;;5120857;28;20175;-85
2021/08/17 01:02:25;;;;;;;13.87;8.37;;;12.20;99.90;;;;;;5119396;28;20190;-86
2021/08/17 01:04:51;;;;;;;13.50;8.10;;;12.30;99.90;;;;;;5119994;28;20180;-85
2021/08/17 01:07:17;;;;;;;12.17;8.20;;;12.30;99.90;;;;;;5118586;28;20212;-86
2021/08/17 01:09:43;;;;;;;13.30;8.40;;;12.20;99.90;;;;;;5119249;28;20171;-85
2021/08/17 01:12:09;;;;;;;14.40;8.60;;;12.20;99.90;;;;;;5117421;28;20167;-85
2021/08/17 01:14:36;;;;;;;13.83;9.03;;;12.20;99.90;;;;;;5118206;28;20171;-85
2021/08/17 01:17:02;;;;;;;12.57;8.47;;;12.10;99.90;;;;;;5135152;28;20194;-85
2021/08/17 01:19:28;;;;;;;15.13;9.00;;;12.10;99.90;;;;;;5143167;27;20182;-86
2021/08/17 01:21:54;;;;;;;14.10;8.67;;;12.10;99.90;;;;;;5123671;28;20512;-86
2021/08/17 01:24:20;;;;;;;13.10;8.83;;;12.20;99.90;;;;;;5122793;28;20220;-86
2021/08/17 01:26:47;;;;;;;13.53;8.83;;;12.20;99.90;;;;;;5121609;28;20283;-86
2021/08/17 01:29:15;;;;;;;15.60;9.00;;;12.20;99.90;;;;;;5123514;28;20181;-86
2021/08/17 01:31:41;;;;;;;13.93;9.13;;;12.20;99.90;;;;;;5121932;28;20632;-86
2021/08/17 01:34:07;;;;;;;15.27;9.73;;;12.20;99.90;;;;;;5123676;28;20182;-86
2021/08/17 01:36:33;;;;;;;14.70;9.60;;;12.30;99.90;;;;;;5122538;28;20199;-86
2021/08/17 01:39:00;;;;;;;14.40;8.67;;;12.20;99.90;;;;;;5122003;28;20183;-86
2021/08/17 01:41:26;;;;;;;16.13;9.43;;;12.20;99.90;;;;;;5121170;28;20651;-86
2021/08/17 01:43:52;;;;;;;15.47;8.77;;;12.20;99.90;;;;;;5121183;28;20243;-86
2021/08/17 01:46:18;;;;;;;14.37;9.40;;;12.20;99.90;;;;;;5121263;28;20289;-86
2021/08/17 01:48:44;;;;;;;12.27;8.67;;;12.20;99.90;;;;;;5121155;28;20239;-86
2021/08/17 01:51:11;;;;;;;15.30;9.47;;;12.20;99.90;;;;;;5120994;28;20189;-86
2021/08/17 01:53:37;;;;;;;15.50;9.63;;;12.20;99.90;;;;;;5121823;28;20172;-86
2021/08/17 01:56:11;;;;;;;17.30;10.37;;;12.20;99.90;;;;;;5122164;28;20199;-87
2021/08/17 01:58:38;;;;;;;15.33;9.43;;;12.20;99.90;;;;;;5121423;28;20264;-86
2021/08/17 02:01:08;;;;;;;17.07;10.00;;;12.20;99.90;;;;;;5120268;28;20197;-86
2021/08/17 02:03:34;;;;;;;15.77;9.53;;;12.20;99.90;;;;;;5118758;28;20186;-86
2021/08/17 02:06:00;;;;;;;17.13;10.17;;;12.20;99.90;;;;;;5119790;28;20201;-86
2021/08/17 02:08:26;;;;;;;15.23;9.17;;;12.20;99.90;;;;;;5118979;28;20206;-86
2021/08/17 02:10:52;;;;;;;15.97;10.00;;;12.20;99.90;;;;;;5121090;28;20174;-87
2021/08/17 02:13:18;;;;;;;15.47;9.63;;;12.10;99.90;;;;;;5119742;28;20603;-86
2021/08/17 02:15:48;;;;;;;19.00;9.30;;;12.10;99.90;;;;;;5119946;28;20171;-86
2021/08/17 02:18:14;;;;;;;13.70;7.77;;;12.10;99.90;;;;;;5119076;28;20182;-87
2021/08/17 02:20:40;;;;;;;11.90;7.50;;;12.10;99.90;;;;;;5120958;28;20167;-86
2021/08/17 02:23:06;;;;;;;11.27;6.67;;;12.10;99.90;;;;;;5119789;28;20176;-86
2021/08/17 02:25:32;;;;;;;8.23;5.27;;;12.00;99.90;;;;;;5119830;28;20179;-87
2021/08/17 02:27:57;;;;;;;7.20;4.23;;;12.00;99.90;;;;;;5119532;28;20213;-86
2021/08/17 02:30:23;;;;;;;5.67;3.53;;;11.90;99.90;;;;;;5119353;28;20649;-86
2021/08/17 02:32:49;;;;;;;8.17;3.87;;;11.80;99.90;;;;;;5121023;28;20201;-87
2021/08/17 02:35:14;;;;;;;6.20;3.00;;;11.80;99.90;;;;;;5119918;28;20175;-86
2021/08/17 02:37:40;;;;;;;5.33;3.50;;;11.70;99.90;;;;;;5120618;28;20676;-87
2021/08/17 02:40:06;;;;;;;5.50;3.13;;;11.70;99.90;;;;;;5120529;28;20180;-86
2021/08/17 02:42:33;;;;;;;4.10;2.90;;;11.60;99.90;;;;;;5119523;28;20266;-86
2021/08/17 02:44:59;;;;;;;4.90;3.70;;;11.60;99.90;;;;;;5120261;28;20224;-87
2021/08/17 02:47:26;;;;;;;5.50;3.33;;;11.50;99.90;;;;;;5119591;28;20220;-87
2021/08/17 02:49:52;;;;;;;5.20;3.93;;;11.50;99.90;;;;;;5120288;28;20176;-87
2021/08/17 02:52:18;;;;;;;5.23;4.07;;;11.50;99.90;;;;;;5119818;28;20284;-86
2021/08/17 02:54:43;;;;;;;4.80;3.70;;;11.60;99.90;;;;;;5120874;28;20201;-86
2021/08/17 02:57:09;;;;;;;4.40;3.60;;;11.50;99.90;;;;;;5122025;28;20195;-86
2021/08/17 02:59:35;;;;;;;6.70;3.70;;;11.50;99.90;;;;;;5120590;28;20653;-86
2021/08/17 03:02:02;;;;;;;5.80;4.17;;;11.50;99.90;;;;;;5121044;28;20198;-86
2021/08/17 03:04:27;;;;;;;6.23;3.90;;;11.50;99.90;;;;;;5120819;28;20226;-86
2021/08/17 03:06:55;;;;;;;7.07;4.03;;;11.50;99.90;;;;;;5122117;28;20222;-87
2021/08/17 03:09:21;;;;;;;6.17;3.93;;;11.40;99.90;;;;;;5123330;28;20178;-86
2021/08/17 03:11:47;;;;;;;5.70;4.07;;;11.40;99.90;;;;;;5122842;28;20206;-86
2021/08/17 03:14:13;;;;;;;5.30;4.13;;;11.50;99.90;;;;;;5122220;28;20232;-86
2021/08/17 03:16:39;;;;;;;7.17;4.30;;;11.40;99.90;;;;;;5131645;28;20192;-85
2021/08/17 03:19:06;;;;;;;7.20;3.83;;;11.40;99.90;;;;;;5137317;28;20171;-85
2021/08/17 03:21:33;;;;;;;6.00;3.60;;;11.40;99.90;;;;;;5137225;28;20193;-85
2021/08/17 03:23:59;;;;;;;8.67;4.10;;;11.40;99.90;;;;;;5139345;28;20183;-85
2021/08/17 03:26:24;;;;;;;4.63;3.37;;;11.40;99.90;;;;;;5140707;28;20199;-83
2021/08/17 03:28:50;;;;;;;4.63;3.43;;;11.40;99.90;;;;;;5123078;28;20263;-86
2021/08/17 03:31:16;;;;;;;5.10;2.90;;;11.40;99.90;;;;;;5119926;28;20181;-86
2021/08/17 03:33:42;;;;;;;5.77;3.30;;;11.40;99.90;;;;;;5119987;28;20185;-86
2021/08/17 03:36:08;;;;;;;6.50;3.17;;;11.40;99.90;;;;;;5120538;28;20584;-86
2021/08/17 03:38:34;;;;;;;4.67;2.50;;;11.40;99.90;;;;;;5121158;28;20174;-86
2021/08/17 03:41:01;;;;;;;4.07;3.27;;;11.40;99.90;;;;;;5121340;28;20193;-86
2021/08/17 03:43:27;;;;;;;2.97;2.40;;;11.40;99.90;;;;;;5120363;28;20179;-86
2021/08/17 03:45:53;;;;;;;4.77;2.87;;;11.30;99.90;;;;;;5120365;28;20183;-86
2021/08/17 03:48:19;;;;;;;4.27;2.63;;;11.30;99.90;;;;;;5120153;28;20207;-86
2021/08/17 03:50:45;;;;;;;8.30;3.77;;;11.30;99.90;;;;;;5120117;28;20195;-86
2021/08/17 03:53:11;;;;;;;4.83;2.90;;;11.20;99.90;;;;;;5119668;28;20187;-86
2021/08/17 03:55:37;;;;;;;3.97;2.53;;;11.20;99.90;;;;;;5121473;28;20175;-87
2021/08/17 03:58:06;;;;;;;4.40;2.87;;;11.20;99.90;;;;;;5119605;28;20191;-88
2021/08/17 04:00:33;;;;;;;6.00;3.80;;;11.30;99.90;;;;;;5119779;28;20191;-88
2021/08/17 04:02:59;;;;;;;5.37;3.60;;;11.10;99.90;;;;;;5119099;28;20240;-88
2021/08/17 04:05:25;;;;;;;5.10;3.13;;;11.10;99.90;;;;;;5119409;28;20587;-88
2021/08/17 04:07:51;;;;;;;5.27;3.60;;;11.10;99.90;;;;;;5119778;28;20539;-87
2021/08/17 04:10:21;;;;;;;11.27;3.20;;;11.00;99.90;;;;;;5119307;28;20191;-88
2021/08/17 04:12:47;;;;;;;6.80;3.20;;;11.00;99.90;;;;;;5120106;28;20522;-88
2021/08/17 04:15:13;;;;;;;4.60;2.90;;;11.00;99.90;;;;;;5120231;28;20172;-88
2021/08/17 04:17:40;;;;;;;6.17;3.00;;;10.90;99.90;;;;;;5118592;28;20206;-87
2021/08/17 04:20:07;;;;;;;4.57;3.07;;;10.90;99.90;;;;;;5120812;28;20260;-88
2021/08/17 04:22:33;;;;;;;5.37;3.20;;;10.90;99.90;;;;;;5118754;28;20176;-87
2021/08/17 04:24:59;;;;;;;6.13;3.20;;;10.80;99.90;;;;;;5119156;28;20775;-88
2021/08/17 04:27:24;;;;;;;3.80;2.50;;;10.80;99.90;;;;;;5118448;28;20216;-88
2021/08/17 04:29:50;;;;;;;4.53;3.20;;;10.80;99.90;;;;;;5120188;28;20183;-88
2021/08/17 04:32:16;;;;;;;7.07;2.70;;;10.70;99.90;;;;;;5118987;28;20230;-87
2021/08/17 04:34:42;;;;;;;5.13;3.10;;;10.80;99.90;;;;;;5119833;28;20175;-87
2021/08/17 04:37:08;;;;;;;4.93;3.23;;;10.70;99.90;;;;;;5120085;28;20197;-88
2021/08/17 04:39:34;;;;;;;4.83;3.50;;;10.70;99.90;;;;;;5118927;28;20182;-88
2021/08/17 04:42:00;;;;;;;7.87;2.97;;;10.70;99.90;;;;;;5120182;28;20173;-87
2021/08/17 04:44:26;;;;;;;6.73;3.10;;;10.80;99.90;;;;;;5119936;28;20197;-88
2021/08/17 04:46:51;;;;;;;5.53;3.67;;;10.80;99.90;;;;;;5118378;28;20202;-87
2021/08/17 04:49:17;;;;;;;8.33;3.27;;;10.80;99.90;;;;;;5118075;28;20207;-87
2021/08/17 04:51:42;;;;;;;4.10;3.00;;;10.80;99.90;;;;;;5119336;28;20233;-87
2021/08/17 04:54:08;;;;;;;5.33;3.23;;;10.80;99.90;;;;;;5117262;28;20181;-87
2021/08/17 04:56:34;;;;;;;5.17;3.70;;;10.80;99.90;;;;;;5118066;28;20195;-87
2021/08/17 04:59:00;;;;;;;5.83;3.43;;;10.80;99.90;;;;;;5118330;28;20180;-87
2021/08/17 05:01:25;;;;;;;6.73;3.90;;;10.90;99.90;;;;;;5119004;28;20248;-87
2021/08/17 05:03:51;;;;;;;5.63;3.97;;;11.00;99.90;;;;;;5117533;28;20274;-88
2021/08/17 05:06:17;;;;;;;8.17;3.50;;;11.10;99.90;;;;;;5118027;28;20244;-87
2021/08/17 05:08:42;;;;;;;6.87;3.57;;;11.10;99.90;;;;;;5117177;28;20207;-87
2021/08/17 05:11:08;;;;;;;7.40;3.87;;;11.20;99.90;;;;;;5117553;28;20175;-87
2021/08/17 05:13:34;;;;;;;4.80;2.77;;;11.10;99.90;;;;;;5117169;28;20186;-87
2021/08/17 05:16:00;;;;;;;5.57;3.63;;;11.20;99.90;;;;;;5117852;28;20202;-87
2021/08/17 05:18:25;;;;;;;5.53;3.30;;;11.20;99.90;;;;;;5116117;28;20182;-87
2021/08/17 05:20:51;;;;;;;4.83;3.20;;;11.20;99.90;;;;;;5115543;28;20177;-87
2021/08/17 05:23:17;;;;;;;3.83;2.73;;;11.30;99.90;;;;;;5115473;28;20221;-87
2021/08/17 05:25:43;;;;;;;5.53;3.23;;;11.30;99.90;;;;;;5114744;28;20657;-87
2021/08/17 05:28:09;;;;;;;5.63;3.40;;;11.20;99.90;;;;;;5114971;28;20223;-87
2021/08/17 05:30:34;;;;;;;5.40;2.90;;;11.20;99.90;;;;;;5126039;28;20178;-86
2021/08/17 05:33:00;;;;;;;5.00;3.10;;;11.20;99.90;;;;;;5141300;28;20179;-87
2021/08/17 05:35:26;;;;;;;4.87;3.50;;;11.20;99.90;;;;;;5134218;28;20175;-88
2021/08/17 05:37:51;;;;;;;4.43;3.27;;;11.20;99.90;;;;;;5121971;28;20222;-88
2021/08/17 05:40:17;;;;;;;6.53;3.60;;;11.20;99.90;;;;;;5121884;28;20183;-88
2021/08/17 05:42:43;;;;;;;5.43;3.50;;;11.30;99.90;;;;;;5121453;28;20633;-87
2021/08/17 05:45:09;;;;;;;5.63;3.83;;;11.20;99.90;;;;;;5121613;28;20208;-88
2021/08/17 05:47:40;;;;;;;7.23;3.90;;;11.20;99.90;;;;;;5122180;28;20665;-88
2021/08/17 05:50:06;;;;;;;6.30;3.80;;;11.30;99.90;;;;;;5121284;28;20181;-88
2021/08/17 05:52:33;;;;;;;5.40;3.60;;;11.40;99.90;;;;;;5121319;28;20191;-88
2021/08/17 05:54:59;;;;;;;5.63;3.43;;;11.40;99.90;;;;;;5120748;28;20175;-88
2021/08/17 05:57:24;;;;;;;7.70;3.70;;;11.40;99.90;;;;;;5121379;28;20751;-88
2021/08/17 05:59:50;;;;;;;5.73;4.13;;;11.40;99.90;;;;;;5121190;28;20272;-88
2021/08/17 06:02:16;;;;;;;8.07;3.90;;;11.40;99.90;;;;;;5120486;28;20199;-88
2021/08/17 06:04:41;;;;;;;6.37;4.20;;;11.40;99.90;;;;;;5120765;28;20186;-88
2021/08/17 06:07:07;;;;;;;7.17;4.37;;;11.50;99.90;;;;;;5118924;28;20203;-89
2021/08/17 06:09:34;;;;;;;6.20;3.83;;;11.60;99.90;;;;;;5118779;28;20179;-88
2021/08/17 06:12:01;;;;;;;4.63;3.43;;;11.60;99.90;;;;;;5118811;28;20184;-89
2021/08/17 06:14:27;;;;;;;5.60;4.00;;;11.70;99.90;;;;;;5118102;28;20696;-89
2021/08/17 06:16:53;;;;;;;6.13;3.97;;;11.80;99.90;;;;;;5119664;28;20218;-88
2021/08/17 06:19:18;;;;;;;8.77;4.23;;;11.80;99.90;;;;;;5118522;28;20264;-89
2021/08/17 06:21:44;;;;;;;6.40;3.43;;;11.80;99.90;;;;;;5118516;28;20285;-88
2021/08/17 06:24:10;;;;;;;5.83;3.40;;;11.90;99.90;;;;;;5117606;28;20183;-88
2021/08/17 06:26:36;;;;;;;5.67;3.13;;;11.90;99.90;;;;;;5118306;28;20198;-88
2021/08/17 06:29:02;;;;;;;5.17;3.40;;;12.00;99.90;;;;;;5117954;28;20214;-88
2021/08/17 06:31:28;;;;;;;4.53;2.87;;;12.00;99.90;;;;;;5118015;28;20185;-89
2021/08/17 06:33:56;;;;;;;4.90;3.30;;;12.00;99.90;;;;;;5118058;28;20175;-88
2021/08/17 06:36:23;;;;;;;4.60;3.23;;;12.10;99.90;;;;;;5117911;28;20201;-89
2021/08/17 06:38:49;;;;;;;4.87;3.27;;;12.10;99.90;;;;;;5117924;28;20671;-89
2021/08/17 06:41:16;;;;;;;5.70;3.57;;;12.10;99.90;;;;;;5116915;28;20263;-89
2021/08/17 06:43:42;;;;;;;4.80;3.10;;;12.10;99.90;;;;;;5117604;28;20183;-89
2021/08/17 06:46:08;;;;;;;5.10;3.33;;;12.10;99.90;;;;;;5117707;28;20237;-88
2021/08/17 06:48:34;;;;;;;5.27;3.20;;;12.10;99.90;;;;;;5117045;28;20208;-88
2021/08/17 06:51:00;;;;;;;4.57;3.50;;;12.10;99.90;;;;;;5117245;28;20174;-88
2021/08/17 06:53:25;;;;;;;4.57;2.77;;;12.10;99.90;;;;;;5117501;28;20178;-89
2021/08/17 06:55:51;;;;;;;5.13;3.53;;;12.20;99.90;;;;;;5117601;28;20266;-89
2021/08/17 06:58:17;;;;;;;4.23;3.07;;;12.30;99.90;;;;;;5117708;28;20187;-88
2021/08/17 07:00:45;;;;;;;5.07;3.30;;;12.30;99.90;;;;;;5117331;28;20561;-89
2021/08/17 07:03:11;;;;;;;4.67;2.90;;;12.30;99.90;;;;;;5117622;28;20265;-89
2021/08/17 07:05:42;;;;;;;5.30;2.90;;;12.40;99.90;;;;;;5118034;28;20593;-90
2021/08/17 07:08:09;;;;;;;4.23;3.27;;;12.40;99.90;;;;;;5117547;28;20217;-88
2021/08/17 07:10:36;;;;;;;4.83;3.27;;;12.50;99.90;;;;;;5119118;28;20233;-89
2021/08/17 07:13:02;;;;;;;4.70;3.07;;;12.60;99.90;;;;;;5118386;28;20181;-88
2021/08/17 07:15:27;;;;;;;5.00;3.17;;;12.60;99.90;;;;;;5118811;28;20319;-88
2021/08/17 07:17:53;;;;;;;4.50;2.60;;;12.70;99.90;;;;;;5118911;28;20263;-88
2021/08/17 07:20:19;;;;;;;4.67;3.27;;;12.70;99.90;;;;;;5118821;28;20512;-88
2021/08/17 07:22:45;;;;;;;4.40;3.33;;;12.80;99.90;;;;;;5118083;28;20178;-88
2021/08/17 07:25:11;;;;;;;4.20;3.10;;;12.70;99.90;;;;;;5118562;28;20232;-88
2021/08/17 07:27:38;;;;;;;4.63;3.00;;;12.80;99.90;;;;;;5118181;28;20199;-88
2021/08/17 07:30:06;;;;;;;4.67;2.90;;;12.80;99.90;;;;;;5120090;28;20198;-88
2021/08/17 07:32:32;;;;;;;4.60;3.17;;;13.00;99.90;;;;;;5118509;28;20171;-88
2021/08/17 07:34:58;;;;;;;4.90;2.90;;;13.00;99.90;;;;;;5120229;28;20574;-88
2021/08/17 07:37:23;;;;;;;4.37;2.83;;;13.10;99.90;;;;;;5124480;28;20191;-88
2021/08/17 07:39:49;;;;;;;4.80;3.20;;;13.10;99.90;;;;;;5133237;28;20175;-87
2021/08/17 07:42:15;;;;;;;4.17;2.83;;;13.20;99.90;;;;;;5136131;28;20187;-88
2021/08/17 07:44:40;;;;;;;4.53;3.07;;;13.30;99.90;;;;;;5119289;28;20645;-89
2021/08/17 07:47:06;;;;;;;7.83;3.10;;;13.40;99.90;;;;;;5117616;28;20207;-88
2021/08/17 07:49:32;;;;;;;6.57;2.73;;;13.50;99.90;;;;;;5117477;28;20203;-88
2021/08/17 07:51:59;;;;;;;4.33;3.00;;;13.60;99.90;;;;;;5117404;28;20629;-88
2021/08/17 07:54:25;;;;;;;3.80;2.87;;;13.50;99.90;;;;;;5117930;28;20175;-88
2021/08/17 07:56:50;;;;;;;4.93;2.93;;;13.60;99.90;;;;;;5118039;28;20224;-87
2021/08/17 07:59:16;;;;;;;4.47;2.87;;;13.60;99.90;;;;;;5117536;28;20595;-87
2021/08/17 08:01:42;;;;;;;3.83;2.60;;;13.80;99.90;;;;;;5117648;28;20262;-88
2021/08/17 08:04:07;;;;;;;4.20;2.80;;;13.90;99.90;;;;;;5117961;28;20647;-88
2021/08/17 08:06:33;;;;;;;5.97;3.27;;;14.00;99.90;;;;;;5118477;28;20738;-88
2021/08/17 08:08:59;;;;;;;5.47;3.13;;;14.10;99.90;;;;;;5118880;28;20249;-86
2021/08/17 08:11:24;;;;;;;5.00;3.10;;;14.30;99.90;;;;;;5119245;28;20700;-86
2021/08/17 08:13:50;;;;;;;5.80;3.70;;;14.30;99.90;;;;;;5118828;28;20232;-85
2021/08/17 08:16:16;;;;;;;3.43;2.70;;;14.10;99.90;;;;;;5119420;28;20195;-86
2021/08/17 08:18:41;;;;;;;5.20;2.97;;;14.10;99.90;;;;;;5118960;28;20175;-86
2021/08/17 08:21:07;;;;;;;5.40;3.30;;;14.20;99.90;;;;;;5119017;28;20190;-86
2021/08/17 08:23:33;;;;;;;5.13;3.03;;;14.40;99.90;;;;;;5119297;28;20183;-86
2021/08/17 08:25:59;;;;;;;3.77;2.83;;;14.60;99.90;;;;;;5119818;28;20258;-86
2021/08/17 08:28:24;;;;;;;4.23;2.90;;;14.90;99.90;;;;;;5118595;28;20199;-86
2021/08/17 08:30:50;;;;;;;4.13;2.90;;;14.90;99.90;;;;;;5119269;28;20632;-86
2021/08/17 08:33:16;;;;;;;4.90;2.80;;;14.90;99.90;;;;;;5118121;28;20176;-86
2021/08/17 08:35:42;;;;;;;6.53;3.10;;;15.00;99.90;;;;;;5118513;28;20198;-85
2021/08/17 08:38:08;;;;;;;7.43;3.53;;;15.10;99.90;;;;;;5118582;28;20175;-86
2021/08/17 08:40:34;;;;;;;4.30;2.70;;;15.40;99.90;;;;;;5118122;28;20178;-85
2021/08/17 08:43:00;;;;;;;3.97;2.80;;;15.50;99.90;;;;;;5119901;28;20175;-85
2021/08/17 08:45:26;;;;;;;4.60;3.37;;;15.60;99.90;;;;;;5119238;28;20175;-86
2021/08/17 08:47:51;;;;;;;4.30;3.40;;;15.50;99.90;;;;;;5119989;28;20207;-85
2021/08/17 08:50:18;;;;;;;3.97;2.97;;;15.50;99.90;;;;;;5120921;28;20184;-86
2021/08/17 08:52:44;;;;;;;4.53;3.00;;;15.70;99.90;;;;;;5120569;28;20210;-85
2021/08/17 08:55:11;;;;;;;5.73;3.57;;;15.80;99.90;;;;;;5118549;28;20213;-85
2021/08/17 08:57:38;;;;;;;5.80;3.60;;;15.80;99.90;;;;;;5118571;28;20672;-86
2021/08/17 09:00:06;;;;;;;5.00;3.63;;;16.00;99.90;;;;;;5118174;28;20199;-85
2021/08/17 09:02:32;;;;;;;5.27;3.23;;;16.20;99.90;;;;;;5118898;28;20219;-86
2021/08/17 09:05:00;;;;;;;4.57;3.27;;;16.30;99.90;;;;;;5121954;28;20179;-86
2021/08/17 09:07:43;;;;;;;4.97;3.33;;;16.40;99.90;;;;;;5122314;28;20210;-85
2021/08/17 09:10:24;;;;;;;5.40;3.57;;;16.60;99.90;;;;;;5122014;28;20664;-86
2021/08/17 09:12:53;;;;;;;5.00;3.53;;;16.60;99.90;;;;;;5122485;28;20212;-85
2021/08/17 09:15:20;;;;;;;4.23;3.60;;;16.60;99.90;;;;;;5120924;28;20176;-85
2021/08/17 09:18:07;;;;;;;7.30;3.27;;;16.60;99.90;;;;;;5121295;28;20221;-86
2021/08/17 09:20:37;;;;;;;4.00;3.07;;;16.40;99.90;;;;;;5121922;28;20171;-85
2021/08/17 09:23:21;;;;;;;5.20;3.50;;;16.50;99.90;;;;;;5120664;28;20550;-85
2021/08/17 09:25:47;;;;;;;4.30;3.27;;;16.80;99.90;;;;;;5121017;28;20175;-85
2021/08/17 09:28:28;;;;;;;3.77;3.27;;;17.00;99.90;;;;;;5121176;28;20252;-85
2021/08/17 09:30:54;;;;;;;4.37;3.30;;;17.20;99.90;;;;;;5121924;28;20179;-86
2021/08/17 09:33:19;;;;;;;4.07;3.27;;;17.30;99.90;;;;;;5121894;28;20238;-85
2021/08/17 09:35:45;;;;;;;4.80;3.50;;;17.50;99.90;;;;;;5120249;28;20641;-85
2021/08/17 09:38:13;;;;;;;5.03;3.60;;;17.80;99.90;;;;;;5120170;28;20180;-85
2021/08/17 09:40:40;;;;;;;4.20;3.23;;;17.90;99.90;;;;;;5119762;28;20172;-85
2021/08/17 09:43:12;;;;;;;4.27;3.37;;;18.00;99.90;;;;;;5123275;28;20538;-85
2021/08/17 09:45:38;;;;;;;6.00;3.60;;;18.20;99.90;;;;;;5129605;28;20182;-86
2021/08/17 09:48:04;;;;;;;6.20;3.77;;;18.50;99.90;;;;;;5139973;28;20199;-85
2021/08/17 09:50:33;;;;;;;3.73;3.20;;;18.50;99.90;;;;;;5134100;28;20642;-86
2021/08/17 09:53:08;;;;;;;3.57;3.07;;;18.50;99.90;;;;;;5120763;28;20181;-86
2021/08/17 09:55:46;;;;;;;6.03;3.50;;;18.40;99.90;;;;;;5121918;28;20187;-86
2021/08/17 09:58:33;;;;;;;5.13;3.60;;;18.40;99.90;;;;;;5122953;28;20172;-86
2021/08/17 10:01:02;;;;;;;4.33;3.83;;;18.50;99.90;;;;;;5120953;28;20201;-86
2021/08/17 10:03:29;;;;;;;5.47;3.43;;;18.70;99.90;;;;;;5121951;28;20677;-86
2021/08/17 10:05:55;;;;;;;5.10;3.80;;;18.70;99.90;;;;;;5122438;28;20218;-86
2021/08/17 10:08:23;;;;;;;4.20;3.30;;;18.80;99.90;;;;;;5121283;28;20293;-86
2021/08/17 10:10:51;;;;;;;5.07;3.50;;;18.50;99.90;;;;;;5121175;28;20191;-86
2021/08/17 10:13:19;;;;;;;8.40;3.50;;;18.50;99.90;;;;;;5121099;28;20171;-86
2021/08/17 10:15:46;;;;;;;4.60;3.57;;;18.30;99.90;;;;;;5120400;28;20658;-86
2021/08/17 10:18:15;;;;;;;4.03;3.40;;;18.20;99.90;;;;;;5122852;28;20193;-85
2021/08/17 10:20:47;;;;;;;4.37;3.30;;;18.20;99.90;;;;;;5123739;28;20184;-86
2021/08/17 10:23:15;;;;;;;4.03;2.97;;;18.30;99.90;;;;;;5121638;28;20206;-86
2021/08/17 10:25:53;;;;;;;3.70;3.10;;;18.50;99.90;;;;;;5124356;28;20535;-86
2021/08/17 10:28:32;;;;;;;4.23;3.17;;;18.50;99.90;;;;;;5123214;28;20561;-86
2021/08/17 10:31:21;;;;;;;4.00;3.23;;;18.30;99.90;;;;;;5122898;28;20242;-86
2021/08/17 10:33:51;;;;;;;4.57;3.43;;;18.20;99.90;;;;;;5120641;28;20193;-85
2021/08/17 10:36:42;;;;;;;5.57;4.00;;;18.00;99.90;;;;;;5136529;28;20254;-85
2021/08/17 10:39:17;;;;;;;5.30;3.70;;;18.00;99.90;;;;;;5129951;28;20185;-85
2021/08/17 10:41:45;;;;;;;4.37;3.30;;;18.10;99.90;;;;;;5119910;28;20180;-86
2021/08/17 10:44:20;;;;;;;5.10;3.60;;;18.00;99.90;;;;;;5119179;28;20184;-86
2021/08/17 10:46:47;;;;;;;5.40;3.37;;;18.00;99.90;;;;;;5119556;28;20196;-85
2021/08/17 10:49:28;;;;;;;5.87;4.03;;;18.10;99.90;;;;;;5120925;28;20215;-86
2021/08/17 10:52:05;;;;;;;6.00;3.33;;;18.50;99.90;;;;;;5121796;28;20203;-85
2021/08/17 10:54:32;;;;;;;4.30;3.50;;;18.60;99.90;;;;;;5120395;28;20169;-86
2021/08/17 10:57:18;;;;;;;4.97;3.63;;;18.40;99.90;;;;;;5121749;28;20252;-86
2021/08/17 10:59:45;;;;;;;3.93;3.10;;;18.30;99.90;;;;;;5121203;28;20243;-85
2021/08/17 11:02:12;;;;;;;4.27;3.50;;;18.20;99.90;;;;;;5122355;28;20197;-86
2021/08/17 11:04:41;;;;;;;4.80;3.57;;;18.00;99.90;;;;;;5120315;28;20181;-86
2021/08/17 11:07:33;;;;;;;7.30;4.20;;;18.10;99.90;;;;;;5121243;28;20235;-86
2021/08/17 11:10:04;;;;;;;4.73;3.57;;;18.20;99.90;;;;;;5134008;28;20202;-85
2021/08/17 11:12:38;;;;;;;3.97;3.40;;;18.20;99.90;;;;;;5135356;28;20240;-86
2021/08/17 11:15:08;;;;;;;4.40;3.50;;;18.10;99.90;;;;;;5116921;28;20225;-86
2021/08/17 11:17:35;;;;;;;7.27;2.97;;;17.70;99.90;;;;;;5116971;28;20256;-86
2021/08/17 11:20:01;;;;;;;4.57;3.20;;;17.80;99.90;;;;;;5116807;28;20209;-86
2021/08/17 11:22:36;;;;;;;4.40;3.10;;;18.10;99.90;;;;;;5118048;28;20181;-85
2021/08/17 11:25:06;;;;;;;5.33;3.57;;;18.70;99.90;;;;;;5118364;28;20157;-86
2021/08/17 11:27:40;;;;;;;3.97;3.13;;;19.50;99.90;;;;;;5116148;28;20295;-85
2021/08/17 11:30:10;;;;;;;5.83;3.47;;;19.60;99.90;;;;;;5115890;28;20187;-86
2021/08/17 11:32:48;;;;;;;4.27;3.10;;;19.40;99.90;;;;;;5115334;28;20171;-86
2021/08/17 11:35:29;;;;;;;4.47;3.07;;;18.90;99.90;;;;;;5115937;28;20171;-86
2021/08/17 11:37:56;;;;;;;4.07;3.13;;;18.50;99.90;;;;;;5118390;28;20192;-86
2021/08/17 11:40:24;;;;;;;5.70;3.23;;;18.10;99.90;;;;;;5117506;28;20182;-85
2021/08/17 11:42:55;;;;;;;5.90;2.60;;;17.80;99.90;;;;;;5115446;28;20230;-85
2021/08/17 11:45:24;;;;;;;4.87;3.10;;;17.70;99.90;;;;;;5115541;28;20214;-86
2021/08/17 11:47:51;;;;;;;4.47;3.40;;;17.80;99.90;;;;;;5116050;28;20199;-86
2021/08/17 11:50:21;;;;;;;5.77;3.63;;;17.90;99.90;;;;;;5115177;28;20173;-85
2021/08/17 11:52:49;;;;;;;4.53;3.33;;;17.90;99.90;;;;;;5124878;28;20172;-85
2021/08/17 11:55:26;;;;;;;7.87;3.50;;;17.80;99.90;;;;;;5138863;28;20164;-84
2021/08/17 11:57:53;;;;;;;4.93;3.60;;;17.70;99.90;;;;;;5128486;28;20195;-86
2021/08/17 12:00:31;;;;;;;5.20;3.40;;;17.80;99.90;;;;;;5116482;28;20192;-86
2021/08/17 12:03:02;;;;;;;4.30;3.70;;;17.80;99.90;;;;;;5115332;28;20270;-86
2021/08/17 12:05:33;;;;;;;5.77;3.20;;;18.40;99.90;;;;;;5116293;28;20185;-86
2021/08/17 12:07:59;;;;;;;4.63;3.37;;;19.20;99.90;;;;;;5115362;28;20231;-86
2021/08/17 12:10:25;;;;;;;4.33;3.20;;;19.50;99.90;;;;;;5115386;28;20182;-86
2021/08/17 12:12:56;;;;;;;5.60;3.70;;;19.60;99.90;;;;;;5115128;28;20176;-86
2021/08/17 12:15:45;;;;;;;4.67;3.53;;;19.60;99.90;;;;;;5115398;28;20188;-86
2021/08/17 12:18:22;;;;;;;9.03;4.00;;;19.40;99.90;;;;;;5115178;28;20240;-86
2021/08/17 12:21:00;;;;;;;6.10;4.00;;;19.90;99.90;;;;;;5116479;28;20184;-86
2021/08/17 12:23:44;;;;;;;6.10;4.73;;;20.50;99.90;;;;;;5115227;28;20182;-86
2021/08/17 12:26:24;;;;;;;7.10;4.53;;;20.30;99.90;;;;;;5114851;28;20238;-86
2021/08/17 12:28:52;;;;;;;6.33;5.00;;;20.50;99.90;;;;;;5116662;28;20203;-86
2021/08/17 12:31:29;;;;;;;6.70;4.73;;;20.60;99.90;;;;;;5116502;28;20202;-86
2021/08/17 12:34:04;;;;;;;7.67;5.30;;;21.00;99.90;;;;;;5114345;28;20178;-86
2021/08/17 12:36:41;;;;;;;6.00;4.57;;;21.30;99.90;;;;;;5115055;28;20240;-86
2021/08/17 12:39:25;;;;;;;7.23;5.23;;;21.50;99.90;;;;;;5116729;28;20182;-86
2021/08/17 12:42:10;;;;;;;6.13;4.80;;;21.70;99.90;;;;;;5118266;28;20178;-86
2021/08/17 12:44:38;;;;;;;6.60;5.07;;;22.20;99.90;;;;;;5118708;28;20176;-86
2021/08/17 12:47:09;;;;;;;6.90;5.40;;;22.60;99.90;;;;;;5118970;28;20199;-87
2021/08/17 12:49:49;;;;;;;6.90;5.73;;;22.60;99.90;;;;;;5118419;28;20714;-87